sensor_id;sensor_type;location;lat;lon;timestamp;pressure;altitude;pressure_sealevel;temperature;humidity
35778;BME280;21899;42.662;23.316;2023-04-27T00:01:10;94127.28;;;7.90;57.52
35778;BME280;21899;42.662;23.316;2023-04-27T00:03:37;94117.34;;;7.84;57.72
35778;BME280;21899;42.662;23.316;2023-04-27T00:06:02;94109.72;;;7.79;57.20
35778;BME280;21899;42.662;23.316;2023-04-27T00:08:28;94119.25;;;7.83;58.03
35778;BME280;21899;42.662;23.316;2023-04-27T00:10:53;94127.25;;;7.80;58.08
35778;BME280;21899;42.662;23.316;2023-04-27T00:13:20;94138.28;;;7.82;57.59
35778;BME280;21899;42.662;23.316;2023-04-27T00:15:45;94131.81;;;7.79;57.71
35778;BME280;21899;42.662;23.316;2023-04-27T00:18:11;94121.91;;;7.76;57.86
35778;BME280;21899;42.662;23.316;2023-04-27T00:20:36;94123.72;;;7.69;57.58
35778;BME280;21899;42.662;23.316;2023-04-27T00:23:01;94134.00;;;7.67;58.05
35778;BME280;21899;42.662;23.316;2023-04-27T00:25:27;94123.31;;;7.60;58.38
35778;BME280;21899;42.662;23.316;2023-04-27T00:27:52;94133.19;;;7.59;58.51
35778;BME280;21899;42.662;23.316;2023-04-27T00:30:19;94134.34;;;7.58;58.89
35778;BME280;21899;42.662;23.316;2023-04-27T00:32:44;94132.41;;;7.55;58.05
35778;BME280;21899;42.662;23.316;2023-04-27T00:35:10;94128.94;;;7.48;57.86
35778;BME280;21899;42.662;23.316;2023-04-27T00:37:35;94119.34;;;7.36;58.72
35778;BME280;21899;42.662;23.316;2023-04-27T00:40:03;94128.06;;;7.33;59.04
35778;BME280;21899;42.662;23.316;2023-04-27T00:42:30;94121.13;;;7.22;59.52
35778;BME280;21899;42.662;23.316;2023-04-27T00:44:56;94130.59;;;7.19;59.42
35778;BME280;21899;42.662;23.316;2023-04-27T00:47:23;94117.56;;;7.04;60.04
35778;BME280;21899;42.662;23.316;2023-04-27T00:49:48;94125.53;;;7.00;60.10
35778;BME280;21899;42.662;23.316;2023-04-27T00:52:14;94132.28;;;6.94;60.45
35778;BME280;21899;42.662;23.316;2023-04-27T00:54:40;94133.44;;;6.93;60.80
35778;BME280;21899;42.662;23.316;2023-04-27T00:57:05;94131.84;;;6.85;61.00
35778;BME280;21899;42.662;23.316;2023-04-27T00:59:30;94126.81;;;6.77;60.98
35778;BME280;21899;42.662;23.316;2023-04-27T01:01:56;94129.06;;;6.75;61.62
35778;BME280;21899;42.662;23.316;2023-04-27T01:04:22;94133.19;;;6.69;62.13
35778;BME280;21899;42.662;23.316;2023-04-27T01:06:47;94146.13;;;6.70;62.45
35778;BME280;21899;42.662;23.316;2023-04-27T01:09:13;94139.94;;;6.59;62.47
35778;BME280;21899;42.662;23.316;2023-04-27T01:11:40;94149.88;;;6.66;62.74
35778;BME280;21899;42.662;23.316;2023-04-27T01:14:06;94144.44;;;6.55;62.89
35778;BME280;21899;42.662;23.316;2023-04-27T01:16:32;94146.00;;;6.56;62.88
35778;BME280;21899;42.662;23.316;2023-04-27T01:18:58;94147.47;;;6.53;62.61
35778;BME280;21899;42.662;23.316;2023-04-27T01:21:24;94148.50;;;6.42;63.47
35778;BME280;21899;42.662;23.316;2023-04-27T01:23:50;94151.22;;;6.49;63.66
35778;BME280;21899;42.662;23.316;2023-04-27T01:26:16;94158.81;;;6.47;63.87
35778;BME280;21899;42.662;23.316;2023-04-27T01:28:42;94141.59;;;6.37;63.19
35778;BME280;21899;42.662;23.316;2023-04-27T01:31:09;94150.34;;;6.38;63.73
35778;BME280;21899;42.662;23.316;2023-04-27T01:33:35;94159.06;;;6.38;63.81
35778;BME280;21899;42.662;23.316;2023-04-27T01:36:00;94157.16;;;6.35;63.67
35778;BME280;21899;42.662;23.316;2023-04-27T01:38:26;94156.69;;;6.30;64.08
35778;BME280;21899;42.662;23.316;2023-04-27T01:40:51;94166.22;;;6.31;64.09
35778;BME280;21899;42.662;23.316;2023-04-27T01:43:19;94149.41;;;6.23;63.86
35778;BME280;21899;42.662;23.316;2023-04-27T01:45:45;94162.38;;;6.28;63.39
35778;BME280;21899;42.662;23.316;2023-04-27T01:48:10;94167.66;;;6.25;63.87
35778;BME280;21899;42.662;23.316;2023-04-27T01:50:36;94158.06;;;6.17;64.07
35778;BME280;21899;42.662;23.316;2023-04-27T01:53:01;94164.50;;;6.16;63.32
35778;BME280;21899;42.662;23.316;2023-04-27T01:55:27;94164.16;;;6.17;64.44
35778;BME280;21899;42.662;23.316;2023-04-27T01:57:53;94167.94;;;6.16;63.62
35778;BME280;21899;42.662;23.316;2023-04-27T02:00:18;94153.47;;;6.14;64.50
35778;BME280;21899;42.662;23.316;2023-04-27T02:02:44;94160.72;;;6.17;64.61
35778;BME280;21899;42.662;23.316;2023-04-27T02:05:09;94158.38;;;6.12;63.70
35778;BME280;21899;42.662;23.316;2023-04-27T02:07:35;94163.06;;;6.22;63.94
35778;BME280;21899;42.662;23.316;2023-04-27T02:10:00;94161.03;;;6.12;64.40
35778;BME280;21899;42.662;23.316;2023-04-27T02:12:25;94150.72;;;6.07;63.58
35778;BME280;21899;42.662;23.316;2023-04-27T02:14:51;94164.41;;;6.09;63.88
35778;BME280;21899;42.662;23.316;2023-04-27T02:17:16;94169.72;;;6.09;63.46
35778;BME280;21899;42.662;23.316;2023-04-27T02:19:42;94157.59;;;6.08;62.63
35778;BME280;21899;42.662;23.316;2023-04-27T02:22:07;94168.22;;;6.08;63.42
35778;BME280;21899;42.662;23.316;2023-04-27T02:24:34;94168.25;;;6.11;62.96
35778;BME280;21899;42.662;23.316;2023-04-27T02:26:59;94168.59;;;6.10;63.49
35778;BME280;21899;42.662;23.316;2023-04-27T02:29:29;94158.38;;;6.12;63.25
35778;BME280;21899;42.662;23.316;2023-04-27T02:31:54;94154.66;;;6.16;62.95
35778;BME280;21899;42.662;23.316;2023-04-27T02:34:20;94169.19;;;6.26;62.50
35778;BME280;21899;42.662;23.316;2023-04-27T02:36:45;94166.84;;;6.21;62.23
35778;BME280;21899;42.662;23.316;2023-04-27T02:39:10;94167.66;;;6.25;62.34
35778;BME280;21899;42.662;23.316;2023-04-27T02:41:36;94162.69;;;6.23;61.71
35778;BME280;21899;42.662;23.316;2023-04-27T02:44:01;94168.38;;;6.22;62.04
35778;BME280;21899;42.662;23.316;2023-04-27T02:46:26;94172.97;;;6.25;61.85
35778;BME280;21899;42.662;23.316;2023-04-27T02:48:52;94180.94;;;6.25;61.10
35778;BME280;21899;42.662;23.316;2023-04-27T02:51:17;94157.31;;;6.16;61.52
35778;BME280;21899;42.662;23.316;2023-04-27T02:53:43;94167.63;;;6.21;61.06
35778;BME280;21899;42.662;23.316;2023-04-27T02:56:08;94169.94;;;6.26;60.78
35778;BME280;21899;42.662;23.316;2023-04-27T02:58:33;94166.06;;;6.20;60.53
35778;BME280;21899;42.662;23.316;2023-04-27T03:00:59;94181.75;;;6.29;60.51
35778;BME280;21899;42.662;23.316;2023-04-27T03:03:25;94176.44;;;6.29;60.81
35778;BME280;21899;42.662;23.316;2023-04-27T03:05:50;94177.25;;;6.33;61.08
35778;BME280;21899;42.662;23.316;2023-04-27T03:08:15;94177.63;;;6.35;60.87
35778;BME280;21899;42.662;23.316;2023-04-27T03:10:41;94190.56;;;6.33;60.67
35778;BME280;21899;42.662;23.316;2023-04-27T03:13:06;94183.69;;;6.32;60.22
35778;BME280;21899;42.662;23.316;2023-04-27T03:15:32;94194.00;;;6.37;60.67
35778;BME280;21899;42.662;23.316;2023-04-27T03:17:57;94190.19;;;6.38;59.34
35778;BME280;21899;42.662;23.316;2023-04-27T03:20:22;94189.00;;;6.32;60.06
35778;BME280;21899;42.662;23.316;2023-04-27T03:22:48;94196.59;;;6.33;59.42
35778;BME280;21899;42.662;23.316;2023-04-27T03:25:13;94186.38;;;6.35;60.24
35778;BME280;21899;42.662;23.316;2023-04-27T03:27:39;94193.59;;;6.35;59.95
35778;BME280;21899;42.662;23.316;2023-04-27T03:30:05;94202.66;;;6.30;60.12
35778;BME280;21899;42.662;23.316;2023-04-27T03:32:30;94205.31;;;6.30;60.25
35778;BME280;21899;42.662;23.316;2023-04-27T03:34:56;94201.88;;;6.30;60.06
35778;BME280;21899;42.662;23.316;2023-04-27T03:37:21;94205.69;;;6.29;60.13
35778;BME280;21899;42.662;23.316;2023-04-27T03:39:46;94210.22;;;6.28;60.48
35778;BME280;21899;42.662;23.316;2023-04-27T03:42:12;94207.16;;;6.26;60.78
35778;BME280;21899;42.662;23.316;2023-04-27T03:44:37;94208.66;;;6.24;60.16
35778;BME280;21899;42.662;23.316;2023-04-27T03:47:03;94223.16;;;6.30;60.31
35778;BME280;21899;42.662;23.316;2023-04-27T03:49:33;94210.16;;;6.25;59.07
35778;BME280;21899;42.662;23.316;2023-04-27T03:51:59;94212.13;;;6.28;58.61
35778;BME280;21899;42.662;23.316;2023-04-27T03:54:24;94219.81;;;6.36;59.80
35778;BME280;21899;42.662;23.316;2023-04-27T03:56:49;94220.63;;;6.40;58.83
35778;BME280;21899;42.662;23.316;2023-04-27T03:59:15;94227.59;;;6.52;59.02
35778;BME280;21899;42.662;23.316;2023-04-27T04:01:40;94228.81;;;6.58;58.94
35778;BME280;21899;42.662;23.316;2023-04-27T04:04:05;94231.88;;;6.60;58.12
35778;BME280;21899;42.662;23.316;2023-04-27T04:06:31;94233.44;;;6.61;57.66
35778;BME280;21899;42.662;23.316;2023-04-27T04:08:57;94235.72;;;6.63;57.17
35778;BME280;21899;42.662;23.316;2023-04-27T04:11:22;94244.06;;;6.61;57.17
35778;BME280;21899;42.662;23.316;2023-04-27T04:13:48;94241.00;;;6.59;58.10
35778;BME280;21899;42.662;23.316;2023-04-27T04:16:14;94243.28;;;6.60;56.98
35778;BME280;21899;42.662;23.316;2023-04-27T04:18:39;94242.50;;;6.60;56.49
35778;BME280;21899;42.662;23.316;2023-04-27T04:21:05;94256.59;;;6.60;56.69
35778;BME280;21899;42.662;23.316;2023-04-27T04:23:30;94254.97;;;6.52;56.33
35778;BME280;21899;42.662;23.316;2023-04-27T04:25:58;94253.56;;;6.62;57.73
35778;BME280;21899;42.662;23.316;2023-04-27T04:28:24;94269.19;;;6.67;56.94
35778;BME280;21899;42.662;23.316;2023-04-27T04:30:49;94255.63;;;6.76;56.07
35778;BME280;21899;42.662;23.316;2023-04-27T04:33:15;94259.94;;;6.87;56.09
35778;BME280;21899;42.662;23.316;2023-04-27T04:35:41;94267.97;;;6.94;54.45
35778;BME280;21899;42.662;23.316;2023-04-27T04:38:07;94264.16;;;6.92;54.35
35778;BME280;21899;42.662;23.316;2023-04-27T04:40:33;94271.13;;;7.03;54.62
35778;BME280;21899;42.662;23.316;2023-04-27T04:42:58;94265.78;;;7.00;54.29
35778;BME280;21899;42.662;23.316;2023-04-27T04:45:24;94276.34;;;7.29;53.82
35778;BME280;21899;42.662;23.316;2023-04-27T04:47:50;94274.47;;;7.73;52.11
35778;BME280;21899;42.662;23.316;2023-04-27T04:50:15;94284.22;;;8.03;51.73
35778;BME280;21899;42.662;23.316;2023-04-27T04:52:41;94281.63;;;8.13;51.52
35778;BME280;21899;42.662;23.316;2023-04-27T04:55:06;94292.66;;;8.12;51.15
35778;BME280;21899;42.662;23.316;2023-04-27T04:57:32;94291.19;;;8.18;51.59
35778;BME280;21899;42.662;23.316;2023-04-27T04:59:57;94280.31;;;8.40;50.08
35778;BME280;21899;42.662;23.316;2023-04-27T05:02:23;94298.03;;;8.76;49.60
35778;BME280;21899;42.662;23.316;2023-04-27T05:04:48;94296.28;;;9.08;48.39
35778;BME280;21899;42.662;23.316;2023-04-27T05:07:16;94299.00;;;9.33;47.08
35778;BME280;21899;42.662;23.316;2023-04-27T05:09:42;94299.41;;;9.42;46.53
35778;BME280;21899;42.662;23.316;2023-04-27T05:12:07;94304.75;;;9.46;47.48
35778;BME280;21899;42.662;23.316;2023-04-27T05:14:33;94297.16;;;9.51;46.48
35778;BME280;21899;42.662;23.316;2023-04-27T05:16:58;94316.16;;;9.25;47.02
35778;BME280;21899;42.662;23.316;2023-04-27T05:19:24;94309.94;;;8.93;48.82
35778;BME280;21899;42.662;23.316;2023-04-27T05:21:49;94311.84;;;8.92;49.02
35778;BME280;21899;42.662;23.316;2023-04-27T05:24:16;94305.75;;;8.92;49.11
35778;BME280;21899;42.662;23.316;2023-04-27T05:26:42;94325.44;;;8.70;48.69
35778;BME280;21899;42.662;23.316;2023-04-27T05:29:08;94307.28;;;8.32;50.54
35778;BME280;21899;42.662;23.316;2023-04-27T05:31:33;94312.63;;;8.32;50.53
35778;BME280;21899;42.662;23.316;2023-04-27T05:33:58;94321.63;;;8.17;50.42
35778;BME280;21899;42.662;23.316;2023-04-27T05:36:24;94312.44;;;8.07;51.45
35778;BME280;21899;42.662;23.316;2023-04-27T05:38:49;94324.28;;;8.13;51.47
35778;BME280;21899;42.662;23.316;2023-04-27T05:41:15;94327.38;;;8.19;51.80
35778;BME280;21899;42.662;23.316;2023-04-27T05:43:41;94332.91;;;7.96;51.24
35778;BME280;21899;42.662;23.316;2023-04-27T05:46:06;94321.84;;;7.94;52.32
35778;BME280;21899;42.662;23.316;2023-04-27T05:48:32;94331.66;;;7.83;51.77
35778;BME280;21899;42.662;23.316;2023-04-27T05:51:01;94326.56;;;7.67;52.38
35778;BME280;21899;42.662;23.316;2023-04-27T05:53:31;94328.81;;;7.65;53.25
35778;BME280;21899;42.662;23.316;2023-04-27T05:55:56;94336.59;;;7.81;52.72
35778;BME280;21899;42.662;23.316;2023-04-27T05:58:23;94327.41;;;7.78;53.18
35778;BME280;21899;42.662;23.316;2023-04-27T06:00:49;94320.63;;;7.84;53.28
35778;BME280;21899;42.662;23.316;2023-04-27T06:03:14;94327.25;;;8.01;53.43
35778;BME280;21899;42.662;23.316;2023-04-27T06:05:40;94320.72;;;7.98;52.59
35778;BME280;21899;42.662;23.316;2023-04-27T06:08:05;94330.00;;;8.15;52.47
35778;BME280;21899;42.662;23.316;2023-04-27T06:10:31;94326.72;;;8.29;51.91
35778;BME280;21899;42.662;23.316;2023-04-27T06:12:56;94335.59;;;8.47;52.16
35778;BME280;21899;42.662;23.316;2023-04-27T06:15:22;94330.38;;;8.61;52.14
35778;BME280;21899;42.662;23.316;2023-04-27T06:17:47;94319.69;;;8.61;51.24
35778;BME280;21899;42.662;23.316;2023-04-27T06:20:12;94336.56;;;8.86;50.77
35778;BME280;21899;42.662;23.316;2023-04-27T06:22:38;94322.16;;;8.94;50.42
35778;BME280;21899;42.662;23.316;2023-04-27T06:25:04;94333.66;;;9.12;50.03
35778;BME280;21899;42.662;23.316;2023-04-27T06:27:30;94322.28;;;9.33;50.49
35778;BME280;21899;42.662;23.316;2023-04-27T06:29:56;94321.59;;;9.53;48.71
35778;BME280;21899;42.662;23.316;2023-04-27T06:32:21;94327.69;;;9.50;49.11
35778;BME280;21899;42.662;23.316;2023-04-27T06:34:48;94322.28;;;9.36;48.75
35778;BME280;21899;42.662;23.316;2023-04-27T06:37:13;94329.56;;;9.46;49.14
35778;BME280;21899;42.662;23.316;2023-04-27T06:39:43;94328.41;;;9.33;49.56
35778;BME280;21899;42.662;23.316;2023-04-27T06:42:09;94323.06;;;9.33;49.10
35778;BME280;21899;42.662;23.316;2023-04-27T06:44:34;94318.84;;;9.36;49.96
35778;BME280;21899;42.662;23.316;2023-04-27T06:46:59;94320.81;;;9.56;48.73
35778;BME280;21899;42.662;23.316;2023-04-27T06:49:25;94317.03;;;9.68;47.91
35778;BME280;21899;42.662;23.316;2023-04-27T06:51:51;94317.03;;;9.64;47.42
35778;BME280;21899;42.662;23.316;2023-04-27T06:54:16;94319.31;;;9.69;47.87
35778;BME280;21899;42.662;23.316;2023-04-27T06:56:42;94317.81;;;9.82;47.42
35778;BME280;21899;42.662;23.316;2023-04-27T06:59:08;94319.72;;;9.96;47.11
35778;BME280;21899;42.662;23.316;2023-04-27T07:01:34;94311.38;;;10.08;47.00
35778;BME280;21899;42.662;23.316;2023-04-27T07:04:00;94319.38;;;10.15;46.87
35778;BME280;21899;42.662;23.316;2023-04-27T07:06:25;94325.50;;;10.26;46.33
35778;BME280;21899;42.662;23.316;2023-04-27T07:08:51;94317.84;;;9.96;46.81
35778;BME280;21899;42.662;23.316;2023-04-27T07:11:16;94305.97;;;9.76;46.82
35778;BME280;21899;42.662;23.316;2023-04-27T07:13:42;94317.81;;;9.89;46.46
35778;BME280;21899;42.662;23.316;2023-04-27T07:16:07;94313.63;;;9.95;46.88
35778;BME280;21899;42.662;23.316;2023-04-27T07:18:33;94303.34;;;10.25;46.44
35778;BME280;21899;42.662;23.316;2023-04-27T07:20:58;94313.22;;;10.49;45.83
35778;BME280;21899;42.662;23.316;2023-04-27T07:23:24;94310.16;;;10.62;45.39
35778;BME280;21899;42.662;23.316;2023-04-27T07:25:49;94308.97;;;10.84;45.39
35778;BME280;21899;42.662;23.316;2023-04-27T07:28:16;94295.53;;;10.98;44.62
35778;BME280;21899;42.662;23.316;2023-04-27T07:30:41;94294.78;;;10.97;44.84
35778;BME280;21899;42.662;23.316;2023-04-27T07:33:08;94304.25;;;11.12;43.68
35778;BME280;21899;42.662;23.316;2023-04-27T07:35:34;94307.72;;;11.06;44.11
35778;BME280;21899;42.662;23.316;2023-04-27T07:38:00;94300.84;;;11.08;44.15
35778;BME280;21899;42.662;23.316;2023-04-27T07:40:29;94301.53;;;11.30;44.02
35778;BME280;21899;42.662;23.316;2023-04-27T07:42:55;94293.00;;;11.45;43.74
35778;BME280;21899;42.662;23.316;2023-04-27T07:45:20;94297.22;;;11.50;43.50
35778;BME280;21899;42.662;23.316;2023-04-27T07:47:47;94291.50;;;11.41;42.90
35778;BME280;21899;42.662;23.316;2023-04-27T07:50:12;94302.25;;;11.37;43.16
35778;BME280;21899;42.662;23.316;2023-04-27T07:52:42;94303.63;;;10.77;44.04
35778;BME280;21899;42.662;23.316;2023-04-27T07:55:08;94292.22;;;10.44;44.31
35778;BME280;21899;42.662;23.316;2023-04-27T07:57:34;94303.72;;;10.27;44.60
35778;BME280;21899;42.662;23.316;2023-04-27T07:59:59;94301.81;;;10.28;45.16
35778;BME280;21899;42.662;23.316;2023-04-27T08:02:26;94297.56;;;10.51;44.86
35778;BME280;21899;42.662;23.316;2023-04-27T08:04:54;94296.44;;;10.52;44.92
35778;BME280;21899;42.662;23.316;2023-04-27T08:07:19;94303.25;;;10.71;44.21
35778;BME280;21899;42.662;23.316;2023-04-27T08:09:45;94295.66;;;10.63;44.36
35778;BME280;21899;42.662;23.316;2023-04-27T08:12:10;94305.97;;;10.68;44.26
35778;BME280;21899;42.662;23.316;2023-04-27T08:14:36;94303.22;;;10.89;43.37
35778;BME280;21899;42.662;23.316;2023-04-27T08:17:01;94300.81;;;11.19;43.14
35778;BME280;21899;42.662;23.316;2023-04-27T08:19:26;94297.38;;;11.15;42.25
35778;BME280;21899;42.662;23.316;2023-04-27T08:21:52;94293.63;;;10.98;42.60
35778;BME280;21899;42.662;23.316;2023-04-27T08:24:17;94300.88;;;10.94;43.16
35778;BME280;21899;42.662;23.316;2023-04-27T08:26:44;94300.09;;;11.01;43.40
35778;BME280;21899;42.662;23.316;2023-04-27T08:29:10;94305.13;;;10.95;43.63
35778;BME280;21899;42.662;23.316;2023-04-27T08:31:35;94297.81;;;10.99;43.09
35778;BME280;21899;42.662;23.316;2023-04-27T08:34:01;94307.78;;;10.92;43.31
35778;BME280;21899;42.662;23.316;2023-04-27T08:36:27;94299.03;;;10.81;43.82
35778;BME280;21899;42.662;23.316;2023-04-27T08:38:53;94291.34;;;10.86;43.31
35778;BME280;21899;42.662;23.316;2023-04-27T08:41:19;94303.09;;;11.20;43.79
35778;BME280;21899;42.662;23.316;2023-04-27T08:43:46;94295.81;;;11.21;42.59
35778;BME280;21899;42.662;23.316;2023-04-27T08:46:17;94287.03;;;11.17;42.24
35778;BME280;21899;42.662;23.316;2023-04-27T08:48:42;94307.00;;;11.05;43.22
35778;BME280;21899;42.662;23.316;2023-04-27T08:51:09;94301.16;;;11.28;42.82
35778;BME280;21899;42.662;23.316;2023-04-27T08:53:35;94308.25;;;11.66;42.24
35778;BME280;21899;42.662;23.316;2023-04-27T08:56:00;94295.22;;;11.68;41.57
35778;BME280;21899;42.662;23.316;2023-04-27T08:58:36;94305.34;;;12.01;41.46
35778;BME280;21899;42.662;23.316;2023-04-27T09:01:04;94295.66;;;12.14;40.49
35778;BME280;21899;42.662;23.316;2023-04-27T09:03:31;94291.00;;;12.18;39.64
35778;BME280;21899;42.662;23.316;2023-04-27T09:05:56;94306.34;;;12.21;39.33
35778;BME280;21899;42.662;23.316;2023-04-27T09:08:22;94301.81;;;12.11;40.58
35778;BME280;21899;42.662;23.316;2023-04-27T09:10:51;94296.69;;;12.27;39.54
35778;BME280;21899;42.662;23.316;2023-04-27T09:13:17;94302.66;;;12.45;40.12
35778;BME280;21899;42.662;23.316;2023-04-27T09:15:50;94295.28;;;12.56;39.17
35778;BME280;21899;42.662;23.316;2023-04-27T09:18:21;94297.41;;;12.75;38.51
35778;BME280;21899;42.662;23.316;2023-04-27T09:20:49;94295.59;;;13.02;38.54
35778;BME280;21899;42.662;23.316;2023-04-27T09:23:37;94290.22;;;12.99;37.55
35778;BME280;21899;42.662;23.316;2023-04-27T09:26:04;94287.03;;;12.77;37.90
35778;BME280;21899;42.662;23.316;2023-04-27T09:28:33;94287.78;;;12.78;38.87
35778;BME280;21899;42.662;23.316;2023-04-27T09:31:00;94285.94;;;12.68;38.09
35778;BME280;21899;42.662;23.316;2023-04-27T09:33:28;94282.69;;;12.87;37.61
35778;BME280;21899;42.662;23.316;2023-04-27T09:35:55;94285.50;;;13.14;36.55
35778;BME280;21899;42.662;23.316;2023-04-27T09:38:21;94276.78;;;13.02;37.30
35778;BME280;21899;42.662;23.316;2023-04-27T09:40:48;94289.22;;;13.23;36.61
35778;BME280;21899;42.662;23.316;2023-04-27T09:43:15;94283.59;;;13.41;37.14
35778;BME280;21899;42.662;23.316;2023-04-27T09:45:41;94272.88;;;13.11;37.09
35778;BME280;21899;42.662;23.316;2023-04-27T09:48:07;94257.81;;;13.17;36.36
35778;BME280;21899;42.662;23.316;2023-04-27T09:50:38;94260.50;;;13.17;36.75
35778;BME280;21899;42.662;23.316;2023-04-27T09:53:09;94273.72;;;13.34;36.99
35778;BME280;21899;42.662;23.316;2023-04-27T09:55:47;94263.72;;;13.35;36.40
35778;BME280;21899;42.662;23.316;2023-04-27T10:09:22;94263.16;;;13.20;35.40
35778;BME280;21899;42.662;23.316;2023-04-27T10:11:48;94256.72;;;13.41;36.16
35778;BME280;21899;42.662;23.316;2023-04-27T10:14:19;94259.69;;;13.50;35.87
35778;BME280;21899;42.662;23.316;2023-04-27T10:16:52;94260.22;;;13.91;35.40
35778;BME280;21899;42.662;23.316;2023-04-27T10:19:19;94267.25;;;13.85;35.30
35778;BME280;21899;42.662;23.316;2023-04-27T10:24:16;94256.88;;;13.83;34.57
35778;BME280;21899;42.662;23.316;2023-04-27T10:26:46;94253.28;;;13.67;34.79
35778;BME280;21899;42.662;23.316;2023-04-27T10:29:12;94267.06;;;13.42;35.29
35778;BME280;21899;42.662;23.316;2023-04-27T10:31:45;94253.50;;;13.53;35.62
35778;BME280;21899;42.662;23.316;2023-04-27T10:34:16;94257.13;;;13.92;34.95
35778;BME280;21899;42.662;23.316;2023-04-27T10:36:42;94250.47;;;14.00;34.84
35778;BME280;21899;42.662;23.316;2023-04-27T10:39:19;94251.66;;;13.99;34.63
35778;BME280;21899;42.662;23.316;2023-04-27T10:41:54;94256.44;;;14.11;33.72
35778;BME280;21899;42.662;23.316;2023-04-27T10:44:30;94257.44;;;14.21;33.83
35778;BME280;21899;42.662;23.316;2023-04-27T10:46:59;94258.81;;;13.83;33.46
35778;BME280;21899;42.662;23.316;2023-04-27T10:49:29;94257.22;;;13.32;34.97
35778;BME280;21899;42.662;23.316;2023-04-27T10:51:57;94257.09;;;13.13;34.98
35778;BME280;21899;42.662;23.316;2023-04-27T10:54:29;94257.31;;;13.25;35.40
35778;BME280;21899;42.662;23.316;2023-04-27T10:57:06;94240.44;;;13.51;34.62
35778;BME280;21899;42.662;23.316;2023-04-27T10:59:32;94249.28;;;13.78;33.40
35778;BME280;21899;42.662;23.316;2023-04-27T11:01:58;94243.50;;;13.80;33.46
35778;BME280;21899;42.662;23.316;2023-04-27T11:04:37;94247.56;;;13.91;33.13
35778;BME280;21899;42.662;23.316;2023-04-27T11:07:05;94246.78;;;13.91;32.81
35778;BME280;21899;42.662;23.316;2023-04-27T11:09:30;94239.88;;;13.90;32.65
35778;BME280;21899;42.662;23.316;2023-04-27T11:11:56;94247.38;;;14.02;32.82
35778;BME280;21899;42.662;23.316;2023-04-27T11:14:22;94237.44;;;14.22;33.05
35778;BME280;21899;42.662;23.316;2023-04-27T11:16:47;94246.72;;;14.44;32.88
35778;BME280;21899;42.662;23.316;2023-04-27T11:19:13;94233.94;;;14.68;31.99
35778;BME280;21899;42.662;23.316;2023-04-27T11:21:38;94234.94;;;14.97;32.36
35778;BME280;21899;42.662;23.316;2023-04-27T11:24:05;94236.66;;;15.07;32.76
35778;BME280;21899;42.662;23.316;2023-04-27T11:26:31;94239.19;;;15.33;31.67
35778;BME280;21899;42.662;23.316;2023-04-27T11:29:07;94259.53;;;15.18;31.85
35778;BME280;21899;42.662;23.316;2023-04-27T11:31:42;94265.09;;;14.26;33.31
35778;BME280;21899;42.662;23.316;2023-04-27T11:34:16;94258.72;;;13.90;33.96
35778;BME280;21899;42.662;23.316;2023-04-27T11:36:42;94262.41;;;13.99;34.27
35778;BME280;21899;42.662;23.316;2023-04-27T11:39:07;94253.41;;;14.09;34.28
35778;BME280;21899;42.662;23.316;2023-04-27T11:41:37;94245.47;;;14.25;33.86
35778;BME280;21899;42.662;23.316;2023-04-27T11:44:07;94261.13;;;14.07;34.12
35778;BME280;21899;42.662;23.316;2023-04-27T11:46:34;94265.41;;;14.28;33.78
35778;BME280;21899;42.662;23.316;2023-04-27T11:49:04;94255.34;;;14.55;33.47
35778;BME280;21899;42.662;23.316;2023-04-27T11:51:31;94267.31;;;14.54;33.04
35778;BME280;21899;42.662;23.316;2023-04-27T11:54:02;94272.41;;;14.22;33.16
35778;BME280;21899;42.662;23.316;2023-04-27T11:56:41;94271.94;;;14.04;33.31
35778;BME280;21899;42.662;23.316;2023-04-27T11:59:20;94273.22;;;13.43;34.53
35778;BME280;21899;42.662;23.316;2023-04-27T12:01:47;94283.53;;;13.48;34.53
35778;BME280;21899;42.662;23.316;2023-04-27T12:04:13;94271.28;;;13.43;34.22
35778;BME280;21899;42.662;23.316;2023-04-27T12:06:38;94269.16;;;13.58;34.61
35778;BME280;21899;42.662;23.316;2023-04-27T12:09:04;94264.84;;;13.64;34.03
35778;BME280;21899;42.662;23.316;2023-04-27T12:11:29;94276.13;;;13.82;34.10
35778;BME280;21899;42.662;23.316;2023-04-27T12:13:55;94273.38;;;13.85;34.26
35778;BME280;21899;42.662;23.316;2023-04-27T12:16:21;94265.72;;;13.57;34.65
35778;BME280;21899;42.662;23.316;2023-04-27T12:18:50;94275.41;;;13.78;33.99
35778;BME280;21899;42.662;23.316;2023-04-27T12:21:16;94265.97;;;13.93;33.38
35778;BME280;21899;42.662;23.316;2023-04-27T12:23:42;94262.69;;;14.05;33.12
35778;BME280;21899;42.662;23.316;2023-04-27T12:26:07;94258.97;;;14.22;33.57
35778;BME280;21899;42.662;23.316;2023-04-27T12:28:33;94262.84;;;14.44;33.42
35778;BME280;21899;42.662;23.316;2023-04-27T12:31:00;94261.31;;;14.43;33.30
35778;BME280;21899;42.662;23.316;2023-04-27T12:33:25;94270.63;;;14.38;33.43
35778;BME280;21899;42.662;23.316;2023-04-27T12:35:51;94280.44;;;14.02;33.86
35778;BME280;21899;42.662;23.316;2023-04-27T12:38:16;94279.06;;;13.91;34.23
35778;BME280;21899;42.662;23.316;2023-04-27T12:40:42;94269.25;;;14.04;34.08
35778;BME280;21899;42.662;23.316;2023-04-27T12:43:07;94269.00;;;13.95;34.01
35778;BME280;21899;42.662;23.316;2023-04-27T12:45:34;94277.59;;;13.86;34.48
35778;BME280;21899;42.662;23.316;2023-04-27T12:47:59;94277.06;;;13.95;34.68
35778;BME280;21899;42.662;23.316;2023-04-27T12:50:24;94267.69;;;14.06;34.19
35778;BME280;21899;42.662;23.316;2023-04-27T12:52:50;94280.59;;;14.15;33.24
35778;BME280;21899;42.662;23.316;2023-04-27T12:55:16;94280.84;;;14.24;33.78
35778;BME280;21899;42.662;23.316;2023-04-27T12:57:41;94284.78;;;14.19;33.76
35778;BME280;21899;42.662;23.316;2023-04-27T13:00:07;94272.69;;;14.31;33.75
35778;BME280;21899;42.662;23.316;2023-04-27T13:02:35;94276.69;;;14.46;33.04
35778;BME280;21899;42.662;23.316;2023-04-27T13:05:01;94275.25;;;14.38;33.44